createdAt,value
2018-07-04T00:02:20.353Z,21.89
2018-07-04T00:05:05.254Z,22.02
2018-07-04T00:07:50.392Z,21.97
2018-07-04T00:10:32.381Z,21.84
2018-07-04T00:13:17.662Z,21.93
2018-07-04T00:15:57.022Z,21.80
2018-07-04T00:18:42.044Z,21.80
2018-07-04T00:21:27.282Z,21.86
2018-07-04T00:24:12.514Z,21.88
2018-07-04T00:26:57.637Z,21.87
2018-07-04T00:29:42.763Z,22.01
2018-07-04T00:32:27.974Z,22.15
2018-07-04T00:35:13.065Z,22.12
2018-07-04T00:37:58.041Z,21.97
2018-07-04T00:40:43.166Z,22.05
2018-07-04T00:43:28.371Z,22.17
2018-07-04T00:46:13.351Z,22.23
2018-07-04T00:48:58.537Z,22.16
2018-07-04T00:51:44.154Z,22.12
2018-07-04T00:54:29.550Z,21.93
2018-07-04T00:57:14.769Z,21.88
2018-07-04T00:59:59.971Z,21.87
2018-07-04T01:02:45.446Z,21.78
2018-07-04T01:05:30.610Z,21.58
2018-07-04T01:08:15.443Z,21.46
2018-07-04T01:10:55.513Z,21.42
2018-07-04T01:13:40.601Z,21.45
2018-07-04T01:16:25.638Z,21.53
2018-07-04T01:19:10.825Z,21.51
2018-07-04T01:21:55.971Z,21.53
2018-07-04T01:24:41.281Z,21.62
2018-07-04T01:27:26.297Z,21.60
2018-07-04T01:30:11.553Z,21.67
2018-07-04T01:32:56.961Z,21.79
2018-07-04T01:35:41.953Z,21.44
2018-07-04T01:38:27.263Z,21.49
2018-07-04T01:41:12.395Z,21.47
2018-07-04T01:43:57.287Z,21.54
2018-07-04T01:46:42.500Z,21.35
2018-07-04T01:49:27.689Z,21.25
2018-07-04T01:52:12.825Z,21.29
2018-07-04T01:54:57.907Z,21.26
2018-07-04T01:57:43.002Z,21.22
2018-07-04T02:00:28.354Z,21.34
2018-07-04T02:03:07.638Z,21.29
2018-07-04T02:05:52.772Z,21.19
2018-07-04T02:08:37.700Z,21.20
2018-07-04T02:11:22.910Z,21.16
2018-07-04T02:14:08.036Z,21.16
2018-07-04T02:16:53.106Z,21.06
2018-07-04T02:19:38.390Z,21.06
2018-07-04T02:22:23.459Z,21.04
2018-07-04T02:25:08.414Z,21.03
2018-07-04T02:27:53.449Z,21.07
2018-07-04T02:30:38.456Z,21.03
2018-07-04T02:33:23.667Z,20.93
2018-07-04T02:36:03.125Z,20.71
2018-07-04T02:38:48.270Z,20.70
2018-07-04T02:41:33.424Z,20.67
2018-07-04T02:44:18.843Z,20.62
2018-07-04T02:46:58.122Z,20.60
2018-07-04T02:49:43.478Z,20.65
2018-07-04T02:52:28.571Z,20.62
2018-07-04T02:55:13.547Z,20.49
2018-07-04T02:57:52.766Z,20.51
2018-07-04T03:00:37.778Z,20.47
2018-07-04T03:03:22.857Z,20.26
2018-07-04T03:06:15.034Z,20.19
2018-07-04T03:09:00.114Z,20.26
2018-07-04T03:11:45.514Z,20.24
2018-07-04T03:14:30.545Z,20.27
2018-07-04T03:17:15.752Z,20.07
2018-07-04T03:20:00.746Z,20.08
2018-07-04T03:22:45.754Z,20.16
2018-07-04T03:25:30.972Z,20.12
2018-07-04T03:28:16.079Z,20.16
2018-07-04T03:31:01.203Z,20.07
2018-07-04T03:33:40.745Z,20.08
2018-07-04T03:36:25.975Z,20.04
2018-07-04T03:39:11.162Z,20.14
2018-07-04T03:41:56.303Z,20.06
2018-07-04T03:44:41.336Z,20.02
2018-07-04T03:47:26.519Z,20.04
2018-07-04T03:50:11.772Z,20.05
2018-07-04T03:52:56.751Z,20.20
2018-07-04T03:55:42.040Z,20.13
2018-07-04T03:58:27.291Z,20.21
2018-07-04T04:01:12.422Z,20.17
2018-07-04T04:03:57.558Z,20.07
2018-07-04T04:06:42.782Z,20.13
2018-07-04T04:09:28.078Z,20.40
2018-07-04T04:12:13.277Z,20.38
2018-07-04T04:14:58.467Z,20.37
2018-07-04T04:17:43.635Z,20.32
2018-07-04T04:20:28.995Z,20.37
2018-07-04T04:23:14.517Z,20.25
2018-07-04T04:25:59.548Z,20.35
2018-07-04T04:28:44.710Z,20.41
2018-07-04T04:31:29.906Z,20.29
2018-07-04T04:34:15.070Z,20.39
2018-07-04T04:37:00.246Z,20.35
2018-07-04T04:39:45.502Z,20.50
2018-07-04T04:42:24.941Z,20.49
2018-07-04T04:45:10.577Z,20.60
2018-07-04T04:47:56.363Z,20.63
2018-07-04T04:50:41.356Z,20.58
2018-07-04T04:53:26.372Z,20.58
2018-07-04T04:56:11.439Z,20.59
2018-07-04T04:58:56.543Z,20.71
2018-07-04T05:01:41.726Z,20.82
2018-07-04T05:04:26.716Z,20.93
2018-07-04T05:07:11.886Z,20.98
2018-07-04T05:09:56.976Z,20.98
2018-07-04T05:12:42.421Z,20.97
2018-07-04T05:15:27.265Z,20.86
2018-07-04T05:18:12.396Z,20.88
2018-07-04T05:20:57.766Z,20.88
2018-07-04T05:23:43.183Z,20.85
2018-07-04T05:26:28.362Z,20.95
2018-07-04T05:29:13.520Z,21.10
2018-07-04T05:31:58.578Z,20.94
2018-07-04T05:34:45.462Z,21.32
2018-07-04T05:37:30.724Z,21.31
2018-07-04T05:40:15.947Z,21.35
2018-07-04T05:43:01.059Z,21.50
2018-07-04T05:45:46.905Z,21.66
2018-07-04T05:48:31.958Z,21.77
2018-07-04T05:51:17.175Z,21.70
2018-07-04T05:54:02.214Z,21.45
2018-07-04T05:56:47.229Z,21.45
2018-07-04T05:59:32.202Z,21.46
2018-07-04T06:02:17.194Z,21.72
2018-07-04T06:05:02.121Z,21.73
2018-07-04T06:07:47.105Z,21.85
2018-07-04T06:10:32.295Z,22.23
2018-07-04T06:13:17.389Z,22.31
2018-07-04T06:16:02.746Z,22.50
2018-07-04T06:18:47.906Z,22.76
2018-07-04T06:21:32.875Z,22.84
2018-07-04T06:24:17.970Z,23.55
2018-07-04T06:27:03.106Z,23.53
2018-07-04T06:29:48.322Z,23.55
2018-07-04T06:32:33.226Z,23.69
2018-07-04T06:35:18.335Z,23.39
2018-07-04T06:37:44.646Z,23.74
2018-07-04T06:40:10.995Z,23.22
2018-07-04T06:42:37.755Z,23.52
2018-07-04T06:45:04.164Z,23.74
2018-07-04T06:47:30.656Z,23.81
2018-07-04T06:49:57.030Z,23.39
2018-07-04T06:52:23.358Z,23.11
2018-07-04T06:54:50.204Z,22.78
2018-07-04T06:57:17.466Z,23.09
2018-07-04T06:59:43.774Z,22.62
2018-07-04T07:02:12.279Z,22.62
2018-07-04T07:05:01.951Z,22.54
2018-07-04T07:07:47.625Z,22.59
2018-07-04T07:10:39.305Z,22.59
2018-07-04T07:13:24.728Z,22.39
2018-07-04T07:16:03.932Z,22.27
2018-07-04T07:21:21.979Z,22.46
2018-07-04T07:24:06.927Z,22.45
2018-07-04T07:26:52.150Z,22.17
2018-07-04T07:29:37.346Z,22.36
2018-07-04T07:32:22.434Z,22.26
2018-07-04T07:35:07.611Z,22.54
2018-07-04T07:37:52.668Z,22.74
2018-07-04T07:40:37.831Z,22.69
2018-07-04T07:43:22.883Z,22.65
2018-07-04T07:46:07.855Z,22.75
2018-07-04T07:48:52.879Z,22.44
2018-07-04T07:51:39.123Z,22.55
2018-07-04T07:54:24.263Z,22.42
2018-07-04T07:57:09.138Z,22.31
2018-07-04T07:59:54.098Z,22.32
2018-07-04T08:02:41.042Z,22.17
2018-07-04T08:05:26.412Z,22.12
2018-07-04T08:08:11.488Z,22.20
2018-07-04T08:10:56.399Z,21.98
2018-07-04T08:13:41.715Z,21.91
2018-07-04T08:16:26.962Z,21.87
2018-07-04T08:19:12.138Z,21.85
2018-07-04T08:21:57.483Z,21.89
2018-07-04T08:24:42.591Z,21.73
2018-07-04T08:27:27.492Z,22.05
2018-07-04T08:30:13.195Z,22.27
2018-07-04T08:32:58.210Z,22.54
2018-07-04T08:35:37.288Z,22.56
2018-07-04T08:38:22.333Z,22.70
2018-07-04T08:41:08.580Z,22.62
2018-07-04T08:43:53.586Z,22.88
2018-07-04T08:46:38.680Z,22.70
2018-07-04T08:49:23.827Z,22.82
2018-07-04T08:52:08.903Z,22.79
2018-07-04T08:54:54.719Z,22.76
2018-07-04T08:57:39.695Z,23.07
2018-07-04T09:00:25.835Z,23.46
2018-07-04T09:03:10.791Z,23.38
2018-07-04T09:05:56.563Z,23.55
2018-07-04T09:08:41.423Z,23.19
2018-07-04T09:11:26.693Z,23.29
2018-07-04T09:14:11.813Z,23.47
2018-07-04T09:16:56.836Z,23.30
2018-07-04T09:19:41.946Z,23.55
2018-07-04T09:22:27.162Z,23.92
2018-07-04T09:25:12.443Z,24.12
2018-07-04T09:27:57.536Z,23.77
2018-07-04T09:30:42.582Z,24.01
2018-07-04T09:33:27.774Z,24.27
2018-07-04T09:36:13.014Z,24.26
2018-07-04T09:38:58.107Z,24.46
2018-07-04T09:41:43.242Z,24.84
2018-07-04T09:44:28.535Z,25.10
2018-07-04T09:47:13.841Z,25.24
2018-07-04T09:49:58.910Z,25.33
2018-07-04T09:52:44.883Z,25.79
2018-07-04T09:55:30.078Z,26.04
2018-07-04T09:58:16.222Z,26.05
2018-07-04T10:01:07.225Z,26.16
2018-07-04T10:03:52.034Z,26.10
2018-07-04T10:06:40.007Z,25.93
2018-07-04T10:09:25.818Z,25.94
2018-07-04T10:12:10.963Z,26.35
2018-07-04T10:14:56.058Z,26.10
2018-07-04T10:17:41.196Z,26.47
2018-07-04T10:20:26.413Z,26.76
2018-07-04T10:23:11.547Z,27.27
2018-07-04T10:25:56.669Z,27.51
2018-07-04T10:28:41.846Z,28.12
2018-07-04T10:31:26.894Z,27.72
2018-07-04T10:34:12.094Z,28.07
2018-07-04T10:36:58.395Z,27.80
2018-07-04T10:39:37.728Z,28.19
2018-07-04T10:42:22.915Z,28.57
2018-07-04T10:45:08.036Z,28.22
2018-07-04T10:47:53.174Z,28.70
2018-07-04T10:50:38.703Z,28.97
2018-07-04T10:53:23.931Z,29.32
2018-07-04T10:56:09.098Z,28.70
2018-07-04T10:58:54.101Z,28.73
2018-07-04T11:01:39.126Z,28.74
2018-07-04T11:04:24.343Z,28.90
2018-07-04T11:07:03.638Z,29.08
2018-07-04T11:09:48.869Z,28.89
2018-07-04T11:12:33.982Z,29.00
2018-07-04T11:15:19.044Z,29.14
2018-07-04T11:18:04.438Z,29.18
2018-07-04T11:20:49.622Z,28.77
2018-07-04T11:23:34.690Z,29.02
2018-07-04T11:26:19.956Z,29.05
2018-07-04T11:29:05.099Z,29.09
2018-07-04T11:31:50.113Z,28.89
2018-07-04T11:34:35.407Z,28.94
2018-07-04T11:37:20.481Z,28.99
2018-07-04T11:40:05.803Z,28.91
2018-07-04T11:42:50.831Z,28.72
2018-07-04T11:45:35.998Z,28.39
2018-07-04T11:48:02.311Z,27.84
2018-07-04T11:50:28.611Z,27.68
2018-07-04T11:52:54.903Z,27.58
2018-07-04T11:55:21.208Z,27.49
2018-07-04T11:57:47.501Z,27.46
2018-07-04T12:00:13.882Z,27.42
2018-07-04T12:02:40.179Z,27.19
2018-07-04T12:05:25.442Z,27.32
2018-07-04T12:07:51.727Z,27.43
2018-07-04T12:10:33.943Z,27.59
2018-07-04T12:13:00.596Z,27.69
2018-07-04T12:15:26.962Z,27.82
2018-07-04T12:17:53.243Z,28.08
2018-07-04T12:20:20.154Z,28.24
2018-07-04T12:22:46.447Z,28.44
2018-07-04T12:25:13.289Z,28.52
2018-07-04T12:27:39.713Z,28.67
2018-07-04T12:30:07.055Z,28.76
2018-07-04T12:32:33.399Z,28.84
2018-07-04T12:34:59.694Z,28.82
2018-07-04T12:37:27.066Z,28.75
2018-07-04T12:39:53.358Z,28.73
2018-07-04T12:42:20.165Z,28.90
2018-07-04T12:44:46.449Z,29.01
2018-07-04T12:47:12.753Z,29.22
2018-07-04T12:49:39.011Z,29.30
2018-07-04T12:52:05.333Z,29.23
2018-07-04T12:54:37.481Z,29.35
2018-07-04T12:57:22.715Z,29.41
2018-07-04T13:00:08.536Z,29.95
2018-07-04T13:02:48.153Z,29.82
2018-07-04T13:05:33.256Z,29.87
2018-07-04T13:08:18.517Z,30.34
2018-07-04T13:11:03.677Z,29.84
2018-07-04T13:13:48.722Z,30.21
2018-07-04T13:16:34.030Z,29.85
2018-07-04T13:19:19.340Z,30.15
2018-07-04T13:22:04.419Z,30.61
2018-07-04T13:24:49.702Z,30.29
2018-07-04T13:27:34.874Z,31.02
2018-07-04T13:30:20.146Z,31.12
2018-07-04T13:33:05.379Z,31.34
2018-07-04T13:35:50.558Z,32.03
2018-07-04T13:38:35.591Z,31.40
2018-07-04T13:41:21.475Z,31.48
2018-07-04T13:44:06.504Z,31.98
2018-07-04T13:46:51.655Z,32.39
2018-07-04T13:49:37.018Z,31.81
2018-07-04T13:52:22.077Z,32.02
2018-07-04T13:55:01.388Z,32.13
2018-07-04T13:57:46.520Z,32.31
2018-07-04T14:00:31.615Z,32.05
2018-07-04T14:03:16.961Z,31.87
2018-07-04T14:06:02.037Z,31.66
2018-07-04T14:08:41.455Z,32.06
2018-07-04T14:11:27.129Z,32.10
2018-07-04T14:14:12.386Z,31.94
2018-07-04T14:16:52.422Z,32.05
2018-07-04T14:19:37.682Z,32.44
2018-07-04T14:22:22.691Z,32.43
2018-07-04T14:25:02.057Z,32.01
2018-07-04T14:27:47.067Z,32.24
2018-07-04T14:30:32.363Z,32.14
2018-07-04T14:33:17.742Z,32.16
2018-07-04T14:36:02.783Z,32.02
2018-07-04T14:38:48.089Z,32.03
2018-07-04T14:41:33.931Z,32.28
2018-07-04T14:44:19.090Z,32.51
2018-07-04T14:47:04.291Z,32.69
2018-07-04T14:49:43.714Z,32.91
2018-07-04T14:52:28.964Z,32.77
2018-07-04T14:55:08.146Z,32.96
2018-07-04T14:57:53.339Z,32.84
2018-07-04T15:00:38.572Z,32.84
2018-07-04T15:03:23.630Z,32.77
2018-07-04T15:06:08.871Z,32.73
2018-07-04T15:08:54.007Z,32.74
2018-07-04T15:11:39.101Z,32.55
2018-07-04T15:14:24.109Z,32.52
2018-07-04T15:17:09.382Z,32.21
2018-07-04T15:19:54.713Z,32.16
2018-07-04T15:22:39.854Z,32.09
2018-07-04T15:25:25.106Z,31.94
2018-07-04T15:28:10.432Z,31.82
2018-07-04T15:30:55.653Z,31.71
2018-07-04T15:33:41.080Z,31.60
2018-07-04T15:36:26.251Z,31.54
2018-07-04T15:39:11.469Z,31.52
2018-07-04T15:41:56.930Z,31.36
2018-07-04T15:44:42.053Z,31.29
2018-07-04T15:47:21.374Z,31.17
2018-07-04T15:50:06.483Z,30.99
2018-07-04T15:52:51.566Z,30.84
2018-07-04T15:55:36.687Z,30.71
2018-07-04T15:58:21.800Z,30.62
2018-07-04T16:01:06.791Z,30.63
2018-07-04T16:03:52.018Z,30.62
2018-07-04T16:06:37.162Z,30.56
2018-07-04T16:09:22.482Z,30.54
2018-07-04T16:12:07.756Z,30.49
2018-07-04T16:14:52.897Z,30.51
2018-07-04T16:17:37.871Z,30.48
2018-07-04T16:20:23.172Z,30.44
2018-07-04T16:23:08.283Z,30.43
2018-07-04T16:25:53.354Z,30.44
2018-07-04T16:28:38.435Z,30.44
2018-07-04T16:31:23.940Z,30.49
2018-07-04T16:34:09.000Z,30.49
2018-07-04T16:36:54.131Z,30.65
2018-07-04T16:39:39.370Z,30.65
2018-07-04T16:42:18.633Z,30.76
2018-07-04T16:45:03.902Z,30.77
2018-07-04T16:47:48.929Z,30.66
2018-07-04T16:50:34.329Z,30.79
2018-07-04T16:53:19.450Z,30.81
2018-07-04T16:56:04.667Z,30.76
2018-07-04T16:58:49.585Z,30.78
2018-07-04T17:01:34.765Z,30.82
2018-07-04T17:04:19.892Z,30.73
2018-07-04T17:07:05.038Z,30.61
2018-07-04T17:09:50.294Z,30.56
2018-07-04T17:12:35.514Z,30.63
2018-07-04T17:15:20.626Z,30.54
2018-07-04T17:18:05.583Z,30.45
2018-07-04T17:20:50.706Z,30.43
2018-07-04T17:23:35.943Z,30.53
2018-07-04T17:26:20.926Z,30.45
2018-07-04T17:29:05.968Z,30.48
2018-07-04T17:31:51.020Z,30.45
2018-07-04T17:34:35.918Z,30.40
2018-07-04T17:37:21.128Z,30.39
2018-07-04T17:40:06.263Z,30.43
2018-07-04T17:42:51.404Z,30.37
2018-07-04T17:45:30.817Z,30.32
2018-07-04T17:48:15.862Z,30.15
2018-07-04T17:51:00.775Z,30.15
2018-07-04T17:53:46.715Z,30.16
2018-07-04T17:56:31.913Z,29.98
2018-07-04T17:59:17.274Z,29.96
2018-07-04T18:02:02.495Z,29.81
2018-07-04T18:04:47.521Z,29.70
2018-07-04T18:07:32.592Z,29.58
2018-07-04T18:10:11.998Z,29.53
2018-07-04T18:12:57.092Z,29.45
2018-07-04T18:15:42.120Z,29.40
2018-07-04T18:18:27.067Z,29.39
2018-07-04T18:21:12.283Z,29.40
2018-07-04T18:23:57.527Z,29.37
2018-07-04T18:26:42.528Z,29.27
2018-07-04T18:29:27.749Z,29.18
2018-07-04T18:32:12.962Z,29.18
2018-07-04T18:34:57.794Z,29.14
2018-07-04T18:37:49.933Z,29.09
2018-07-04T18:40:35.042Z,28.81
2018-07-04T18:43:20.139Z,28.80
2018-07-04T18:46:05.145Z,28.72
2018-07-04T18:48:50.238Z,28.61
2018-07-04T18:51:35.366Z,28.47
2018-07-04T18:54:20.488Z,28.41
2018-07-04T18:57:05.559Z,28.32
2018-07-04T18:59:51.357Z,28.22
2018-07-04T19:02:36.518Z,28.16
2018-07-04T19:05:21.880Z,27.96
2018-07-04T19:08:07.023Z,27.91
2018-07-04T19:10:51.986Z,27.61
2018-07-04T19:13:37.195Z,27.38
2018-07-04T19:16:25.421Z,27.17
2018-07-04T19:19:10.408Z,26.92
2018-07-04T19:21:55.560Z,26.83
2018-07-04T19:24:40.750Z,26.71
2018-07-04T19:27:25.758Z,26.60
2018-07-04T19:30:11.070Z,26.48
2018-07-04T19:32:56.231Z,26.45
2018-07-04T19:35:41.406Z,26.24
2018-07-04T19:38:26.639Z,26.18
2018-07-04T19:41:11.850Z,26.02
2018-07-04T19:43:51.229Z,25.95
2018-07-04T19:46:36.342Z,25.93
2018-07-04T19:49:21.372Z,25.94
2018-07-04T19:52:06.645Z,25.79
2018-07-04T19:54:51.723Z,25.76
2018-07-04T19:57:36.650Z,25.79
2018-07-04T20:00:21.583Z,25.78
2018-07-04T20:03:06.935Z,25.78
2018-07-04T20:05:52.260Z,25.69
2018-07-04T20:08:37.189Z,25.65
2018-07-04T20:11:22.166Z,25.59
2018-07-04T20:14:07.372Z,25.61
2018-07-04T20:16:52.729Z,25.57
2018-07-04T20:19:37.879Z,25.51
2018-07-04T20:22:22.833Z,25.51
2018-07-04T20:25:07.870Z,25.51
2018-07-04T20:27:52.975Z,25.47
2018-07-04T20:30:37.920Z,25.37
2018-07-04T20:33:23.006Z,25.38
2018-07-04T20:36:08.199Z,25.37
2018-07-04T20:38:53.239Z,25.36
2018-07-04T20:41:32.497Z,25.27
2018-07-04T20:44:17.639Z,25.22
2018-07-04T20:47:02.748Z,25.18
2018-07-04T20:49:47.643Z,25.15
2018-07-04T20:52:32.610Z,25.09
2018-07-04T20:55:17.729Z,25.03
2018-07-04T20:58:03.026Z,24.99
2018-07-04T21:00:48.197Z,24.95
2018-07-04T21:03:33.552Z,24.92
2018-07-04T21:06:18.668Z,24.86
2018-07-04T21:09:04.063Z,24.85
2018-07-04T21:11:49.277Z,24.81
2018-07-04T21:14:34.412Z,24.75
2018-07-04T21:17:19.434Z,24.72
2018-07-04T21:20:04.638Z,24.64
2018-07-04T21:22:49.797Z,24.51
2018-07-04T21:25:35.145Z,24.42
2018-07-04T21:28:20.191Z,24.34
2018-07-04T21:31:05.385Z,24.25
2018-07-04T21:33:50.414Z,24.16
2018-07-04T21:36:35.378Z,24.04
2018-07-04T21:39:20.490Z,23.94
2018-07-04T21:42:05.635Z,23.89
2018-07-04T21:44:50.684Z,23.85
2018-07-04T21:47:35.965Z,23.70
2018-07-04T21:50:21.245Z,23.65
2018-07-04T21:53:06.269Z,23.61
2018-07-04T21:55:51.578Z,23.55
2018-07-04T21:58:37.062Z,23.51
2018-07-04T22:01:22.298Z,23.46
2018-07-04T22:04:07.675Z,23.30
2018-07-04T22:06:52.490Z,23.26
2018-07-04T22:09:37.598Z,23.23
2018-07-04T22:12:22.694Z,23.18
2018-07-04T22:15:08.015Z,23.18
2018-07-04T22:17:53.055Z,23.14
2018-07-04T22:20:38.126Z,23.14
2018-07-04T22:23:23.343Z,23.07
2018-07-04T22:26:08.630Z,23.07
2018-07-04T22:28:53.816Z,22.97
2018-07-04T22:31:39.167Z,22.92
2018-07-04T22:34:24.199Z,22.86
2018-07-04T22:37:09.417Z,22.89
2018-07-04T22:39:54.402Z,22.87
2018-07-04T22:42:39.597Z,22.82
2018-07-04T22:45:24.837Z,22.79
2018-07-04T22:48:09.978Z,22.74
2018-07-04T22:50:55.047Z,22.65
2018-07-04T22:53:40.213Z,22.65
2018-07-04T22:56:25.347Z,22.63
2018-07-04T22:59:10.394Z,22.60
2018-07-04T23:01:55.532Z,22.56
2018-07-04T23:04:40.646Z,22.53
2018-07-04T23:07:25.493Z,22.49
2018-07-04T23:10:10.593Z,22.43
2018-07-04T23:12:55.669Z,22.42
2018-07-04T23:15:40.902Z,22.40
2018-07-04T23:18:25.929Z,22.38
2018-07-04T23:21:10.887Z,22.29
2018-07-04T23:23:56.086Z,22.28
2018-07-04T23:26:41.415Z,22.28
2018-07-04T23:29:26.670Z,22.25
2018-07-04T23:32:11.878Z,22.17
2018-07-04T23:34:57.064Z,22.17
2018-07-04T23:37:42.230Z,22.10
2018-07-04T23:40:27.326Z,22.12
2018-07-04T23:43:12.703Z,22.11
2018-07-04T23:45:58.058Z,22.03
2018-07-04T23:48:43.443Z,22.03
2018-07-04T23:51:28.526Z,21.96
2018-07-04T23:54:07.872Z,21.92
2018-07-04T23:56:53.054Z,21.83
2018-07-04T23:59:38.083Z,21.79
